createdAt,value
2019-04-20T00:00:04.604Z,6.58
2019-04-20T00:02:35.835Z,6.55
2019-04-20T00:05:09.396Z,6.95
2019-04-20T00:07:43.793Z,7.92
2019-04-20T00:10:20.006Z,6.58
2019-04-20T00:13:06.811Z,5.53
2019-04-20T00:15:26.409Z,6.70
2019-04-20T00:18:03.214Z,6.45
2019-04-20T00:20:36.894Z,5.97
2019-04-20T00:23:13.456Z,5.92
2019-04-20T00:25:54.892Z,6.22
2019-04-20T00:28:40.835Z,7.70
2019-04-20T00:31:13.779Z,7.05
2019-04-20T00:33:45.841Z,6.42
2019-04-20T00:36:05.357Z,7.45
2019-04-20T00:38:42.655Z,6.05
2019-04-20T00:41:17.281Z,6.35
2019-04-20T00:43:49.385Z,6.05
2019-04-20T00:46:31.980Z,5.80
2019-04-20T00:49:06.906Z,5.08
2019-04-20T00:51:51.156Z,6.55
2019-04-20T00:54:07.330Z,6.55
2019-04-20T00:56:41.307Z,5.45
2019-04-20T00:59:27.578Z,8.93
2019-04-20T01:02:10.310Z,6.90
2019-04-20T01:04:50.456Z,6.42
2019-04-20T01:07:13.673Z,6.37
2019-04-20T01:09:54.107Z,6.45
2019-04-20T01:12:30.342Z,5.40
2019-04-20T01:15:06.331Z,5.17
2019-04-20T01:17:37.930Z,5.70
2019-04-20T01:20:12.108Z,6.03
2019-04-20T01:22:53.823Z,5.10
2019-04-20T01:25:28.490Z,7.85
2019-04-20T01:28:14.872Z,5.47
2019-04-20T01:30:36.173Z,6.17
2019-04-20T01:33:16.022Z,6.10
2019-04-20T01:35:53.466Z,5.70
2019-04-20T01:38:30.588Z,8.13
2019-04-20T01:40:48.467Z,6.80
2019-04-20T01:43:22.678Z,6.33
2019-04-20T01:46:07.577Z,6.67
2019-04-20T01:48:35.594Z,6.47
2019-04-20T01:51:11.840Z,8.00
2019-04-20T01:54:06.986Z,6.37
2019-04-20T01:56:39.022Z,6.58
2019-04-20T01:59:23.989Z,5.50
2019-04-20T02:02:09.627Z,7.83
2019-04-20T02:04:43.956Z,6.33
2019-04-20T02:07:19.308Z,6.17
2019-04-20T02:09:56.437Z,8.43
2019-04-20T02:12:29.228Z,7.50
2019-04-20T02:15:02.742Z,6.83
2019-04-20T02:17:41.836Z,6.78
2019-04-20T02:20:28.714Z,7.70
2019-04-20T02:23:00.013Z,8.48
2019-04-20T02:25:18.647Z,8.35
2019-04-20T02:28:01.395Z,8.80
2019-04-20T02:33:42.846Z,6.95
2019-04-20T02:36:21.226Z,8.78
2019-04-20T02:39:13.681Z,6.92
2019-04-20T02:41:39.177Z,8.03
2019-04-20T02:44:16.016Z,9.53
2019-04-20T02:46:45.299Z,8.25
2019-04-20T02:49:19.846Z,7.20
2019-04-20T02:51:59.878Z,8.30
2019-04-20T02:54:18.741Z,9.40
2019-04-20T02:57:07.287Z,9.30
2019-04-20T02:59:53.360Z,9.75
2019-04-20T03:01:57.345Z,7.08
2019-04-20T03:04:20.324Z,8.23
2019-04-20T03:06:58.341Z,9.00
2019-04-20T03:09:40.474Z,8.80
2019-04-20T03:12:21.723Z,8.68
2019-04-20T03:14:42.294Z,7.92
2019-04-20T03:17:27.253Z,10.20
2019-04-20T03:19:51.656Z,8.68
2019-04-20T03:22:48.344Z,8.73
2019-04-20T03:25:11.412Z,9.35
2019-04-20T03:27:45.846Z,8.23
2019-04-20T03:31:16.257Z,7.45
2019-04-20T03:33:44.701Z,9.45
2019-04-20T03:35:51.124Z,8.25
2019-04-20T03:38:21.703Z,11.53
2019-04-20T03:40:45.295Z,12.35
2019-04-20T03:43:07.680Z,9.73
2019-04-20T03:45:50.649Z,8.80
2019-04-20T03:48:33.521Z,8.80
2019-04-20T03:51:22.053Z,7.78
2019-04-20T03:54:02.779Z,8.40
2019-04-20T03:56:42.286Z,9.25
2019-04-20T03:59:36.003Z,8.20
2019-04-20T04:02:33.173Z,8.68
2019-04-20T04:05:04.371Z,8.03
2019-04-20T04:07:30.414Z,8.60
2019-04-20T04:10:10.871Z,9.13
2019-04-20T04:12:35.597Z,7.97
2019-04-20T04:15:04.200Z,8.05
2019-04-20T04:17:42.300Z,10.43
2019-04-20T04:20:16.275Z,7.67
2019-04-20T04:23:06.025Z,11.10
2019-04-20T04:25:32.555Z,9.43
2019-04-20T04:28:10.767Z,9.40
2019-04-20T04:30:49.538Z,8.98
2019-04-20T04:33:48.954Z,10.72
2019-04-20T04:35:57.003Z,7.62
2019-04-20T04:38:38.666Z,6.58
2019-04-20T04:41:17.079Z,8.28
2019-04-20T04:43:48.373Z,7.85
2019-04-20T04:45:59.582Z,9.70
2019-04-20T04:48:37.049Z,9.08
2019-04-20T04:51:15.826Z,10.25
2019-04-20T04:53:52.931Z,8.30
2019-04-20T04:56:20.146Z,18.52
2019-04-20T04:58:51.722Z,8.23
2019-04-20T05:01:28.799Z,9.10
2019-04-20T05:04:34.780Z,7.53
2019-04-20T05:06:48.541Z,9.05
2019-04-20T05:09:12.335Z,8.73
2019-04-20T05:11:44.730Z,7.85
2019-04-20T05:14:24.417Z,8.90
2019-04-20T05:17:07.738Z,9.78
2019-04-20T05:19:47.476Z,6.03
2019-04-20T05:22:26.173Z,8.45
2019-04-20T05:25:02.333Z,8.55
2019-04-20T05:27:34.881Z,9.08
2019-04-20T05:29:50.861Z,7.97
2019-04-20T05:32:35.831Z,8.50
2019-04-20T05:35:21.553Z,11.12
2019-04-20T05:38:02.918Z,8.30
2019-04-20T05:40:26.209Z,8.65
2019-04-20T05:43:07.929Z,7.60
2019-04-20T05:45:33.770Z,8.35
2019-04-20T05:48:11.916Z,9.03
2019-04-20T05:50:51.873Z,7.00
2019-04-20T05:53:26.428Z,8.58
2019-04-20T05:55:54.451Z,9.98
2019-04-20T05:58:33.983Z,9.50
2019-04-20T06:01:16.093Z,8.45
2019-04-20T06:03:42.348Z,7.75
2019-04-20T06:06:15.172Z,9.20
2019-04-20T06:08:59.626Z,9.83
2019-04-20T06:11:28.276Z,11.28
2019-04-20T06:13:53.749Z,7.55
2019-04-20T06:16:41.011Z,9.78
2019-04-20T06:19:24.383Z,8.43
2019-04-20T06:21:57.562Z,10.68
2019-04-20T06:24:35.331Z,10.18
2019-04-20T06:27:03.237Z,7.90
2019-04-20T06:29:38.060Z,9.38
2019-04-20T06:32:14.024Z,8.33
2019-04-20T06:35:05.057Z,6.75
2019-04-20T06:37:20.736Z,9.98
2019-04-20T06:39:54.689Z,10.03
2019-04-20T06:42:34.304Z,10.65
2019-04-20T06:45:04.542Z,9.43
2019-04-20T06:47:39.330Z,7.78
2019-04-20T06:50:16.038Z,9.13
2019-04-20T06:53:16.405Z,8.38
2019-04-20T06:55:48.644Z,7.08
2019-04-20T06:58:33.433Z,6.95
2019-04-20T07:01:00.832Z,7.00
2019-04-20T07:03:49.416Z,8.13
2019-04-20T07:06:23.045Z,9.63
2019-04-20T07:08:48.808Z,7.47
2019-04-20T07:11:21.291Z,8.48
2019-04-20T07:13:36.164Z,7.72
2019-04-20T07:16:28.255Z,6.90
2019-04-20T07:19:07.634Z,9.75
2019-04-20T07:22:07.227Z,7.90
2019-04-20T07:24:38.563Z,8.25
2019-04-20T07:27:03.055Z,8.08
2019-04-20T07:29:41.148Z,8.10
2019-04-20T07:32:01.536Z,7.55
2019-04-20T07:34:47.526Z,7.10
2019-04-20T07:37:51.807Z,7.85
2019-04-20T07:40:03.487Z,6.53
2019-04-20T07:42:34.633Z,6.97
2019-04-20T07:45:07.734Z,8.38
2019-04-20T07:47:46.591Z,7.75
2019-04-20T07:50:07.715Z,7.83
2019-04-20T07:52:38.683Z,7.50
2019-04-20T07:57:51.121Z,7.03
2019-04-20T08:00:44.483Z,7.28
2019-04-20T08:03:23.678Z,8.13
2019-04-20T08:05:52.700Z,8.48
2019-04-20T08:08:35.219Z,6.78
2019-04-20T08:11:07.464Z,8.75
2019-04-20T08:16:24.312Z,8.10
2019-04-20T08:18:53.915Z,14.05
2019-04-20T08:21:32.728Z,7.08
2019-04-20T08:24:02.613Z,7.20
2019-04-20T08:26:25.159Z,6.83
2019-04-20T08:29:01.417Z,6.08
2019-04-20T08:31:43.469Z,7.42
2019-04-20T08:37:00.937Z,12.10
2019-04-20T08:42:10.510Z,11.03
2019-04-20T08:47:35.148Z,7.12
2019-04-20T08:50:03.154Z,8.13
2019-04-20T08:52:55.467Z,6.40
2019-04-20T08:55:04.705Z,6.03
2019-04-20T08:57:22.524Z,9.90
2019-04-20T08:59:56.053Z,8.75
2019-04-20T09:02:30.400Z,10.60
2019-04-20T09:05:09.042Z,8.75
2019-04-20T09:07:50.304Z,6.25
2019-04-20T09:10:34.738Z,7.58
2019-04-20T09:13:02.233Z,15.13
2019-04-20T09:15:21.649Z,12.07
2019-04-20T09:18:01.958Z,7.53
2019-04-20T09:20:46.227Z,6.92
2019-04-20T09:23:28.640Z,7.40
2019-04-20T09:26:17.154Z,8.35
2019-04-20T09:28:31.877Z,7.58
2019-04-20T09:31:18.129Z,6.10
2019-04-20T09:33:58.524Z,7.97
2019-04-20T09:36:42.025Z,8.58
2019-04-20T09:39:27.159Z,7.33
2019-04-20T09:42:09.205Z,8.63
2019-04-20T09:44:46.201Z,8.13
2019-04-20T09:47:25.897Z,9.95
2019-04-20T09:50:00.828Z,8.13
2019-04-20T09:52:39.879Z,8.15
2019-04-20T09:55:14.938Z,8.18
2019-04-20T09:57:54.056Z,10.38
2019-04-20T10:00:25.831Z,8.90
2019-04-20T10:02:44.688Z,8.75
2019-04-20T10:05:17.799Z,8.13
2019-04-20T10:07:55.942Z,10.30
2019-04-20T10:10:32.323Z,8.10
2019-04-20T10:13:00.597Z,9.18
2019-04-20T10:15:35.142Z,8.33
2019-04-20T10:18:08.396Z,8.08
2019-04-20T10:20:42.287Z,9.30
2019-04-20T10:23:16.454Z,7.37
2019-04-20T10:25:50.924Z,6.70
2019-04-20T10:28:25.517Z,7.47
2019-04-20T10:30:58.971Z,7.10
2019-04-20T10:33:33.442Z,8.00
2019-04-20T10:36:09.763Z,8.53
2019-04-20T10:38:42.672Z,7.65
2019-04-20T10:41:29.760Z,7.62
2019-04-20T10:43:51.077Z,7.92
2019-04-20T10:46:25.265Z,8.85
2019-04-20T10:49:02.809Z,8.03
2019-04-20T10:51:33.706Z,8.98
2019-04-20T10:54:06.738Z,9.33
2019-04-20T10:56:41.395Z,6.72
2019-04-20T10:59:15.985Z,8.03
2019-04-20T11:01:49.729Z,7.42
2019-04-20T11:04:22.974Z,6.87
2019-04-20T11:06:56.648Z,7.80
2019-04-20T11:09:30.720Z,8.30
2019-04-20T11:12:04.202Z,8.33
2019-04-20T11:14:41.892Z,6.37
2019-04-20T11:17:12.530Z,7.78
2019-04-20T11:19:45.446Z,6.00
2019-04-20T11:22:19.977Z,8.38
2019-04-20T11:24:54.205Z,8.18
2019-04-20T11:27:28.082Z,6.78
2019-04-20T11:30:02.410Z,8.20
2019-04-20T11:32:36.061Z,6.33
2019-04-20T11:35:20.514Z,6.55
2019-04-20T11:37:44.897Z,7.28
2019-04-20T11:40:19.137Z,14.15
2019-04-20T11:42:53.425Z,7.12
2019-04-20T11:45:28.732Z,8.20
2019-04-20T11:48:03.205Z,7.42
2019-04-20T11:50:37.766Z,6.58
2019-04-20T11:53:11.350Z,6.83
2019-04-20T11:55:44.563Z,6.05
2019-04-20T11:58:17.845Z,5.67
2019-04-20T12:01:01.274Z,7.25
2019-04-20T12:03:33.265Z,6.90
2019-04-20T12:06:04.963Z,8.80
2019-04-20T12:08:40.189Z,7.45
2019-04-20T12:11:24.230Z,8.53
2019-04-20T12:13:46.753Z,7.28
2019-04-20T12:16:21.268Z,6.60
2019-04-20T12:18:54.697Z,6.08
2019-04-20T12:21:28.676Z,6.97
2019-04-20T12:24:02.455Z,7.08
2019-04-20T12:26:36.539Z,7.70
2019-04-20T12:29:10.053Z,5.92
2019-04-20T12:31:51.222Z,8.13
2019-04-20T12:34:18.465Z,7.77
2019-04-20T12:36:51.324Z,5.67
2019-04-20T12:39:24.874Z,6.33
2019-04-20T12:42:02.716Z,8.40
2019-04-20T12:44:33.014Z,7.53
2019-04-20T12:47:07.657Z,7.62
2019-04-20T12:49:41.342Z,7.08
2019-04-20T12:52:14.885Z,8.63
2019-04-20T12:54:48.026Z,7.70
2019-04-20T12:57:22.670Z,5.72
2019-04-20T12:59:57.187Z,7.25
2019-04-20T13:02:31.460Z,4.80
2019-04-20T13:05:04.486Z,5.35
2019-04-20T13:07:42.144Z,7.12
2019-04-20T13:10:13.581Z,7.17
2019-04-20T13:13:04.573Z,7.12
2019-04-20T13:15:38.293Z,6.67
2019-04-20T13:18:13.407Z,7.67
2019-04-20T13:20:46.427Z,7.87
2019-04-20T13:23:20.351Z,5.85
2019-04-20T13:25:54.950Z,6.42
2019-04-20T13:28:28.809Z,7.30
2019-04-20T13:31:02.187Z,6.45
2019-04-20T13:33:35.313Z,5.62
2019-04-20T13:36:08.191Z,6.08
2019-04-20T13:38:41.738Z,5.85
2019-04-20T13:41:15.772Z,6.05
2019-04-20T13:43:50.217Z,8.38
2019-04-20T13:46:24.821Z,5.80
2019-04-20T13:48:58.066Z,6.17
2019-04-20T13:51:32.752Z,6.35
2019-04-20T13:54:13.237Z,7.22
2019-04-20T13:56:41.786Z,7.35
2019-04-20T13:59:26.670Z,7.83
2019-04-20T14:02:15.002Z,5.08
2019-04-20T14:04:53.172Z,6.87
2019-04-20T14:07:27.042Z,5.60
2019-04-20T14:10:01.750Z,5.75
2019-04-20T14:12:39.018Z,6.20
2019-04-20T14:15:11.178Z,6.45
2019-04-20T14:17:44.245Z,5.53
2019-04-20T14:20:20.177Z,6.90
2019-04-20T14:22:52.480Z,5.78
2019-04-20T14:25:27.056Z,4.87
2019-04-20T14:28:00.840Z,5.62
2019-04-20T14:30:34.914Z,5.87
2019-04-20T14:33:08.591Z,6.10
2019-04-20T14:35:42.953Z,5.58
2019-04-20T14:38:17.636Z,6.47
2019-04-20T14:40:52.571Z,6.87
2019-04-20T14:43:26.777Z,5.75
2019-04-20T14:46:00.858Z,5.75
2019-04-20T14:48:34.853Z,7.35
2019-04-20T14:51:08.193Z,7.20
2019-04-20T14:53:43.287Z,6.15
2019-04-20T14:56:17.718Z,6.55
2019-04-20T14:58:59.732Z,7.72
2019-04-20T15:01:34.772Z,7.90
2019-04-20T15:04:14.539Z,5.75
2019-04-20T15:06:42.594Z,8.45
2019-04-20T15:09:16.831Z,5.70
2019-04-20T15:11:50.719Z,6.35
2019-04-20T15:14:24.839Z,5.78
2019-04-20T15:16:58.507Z,6.37
2019-04-20T15:19:33.655Z,5.75
2019-04-20T15:22:09.431Z,6.23
2019-04-20T15:24:42.705Z,3.60
2019-04-20T15:27:16.298Z,6.50
2019-04-20T15:29:50.475Z,4.87
2019-04-20T15:32:25.012Z,6.83
2019-04-20T15:34:58.673Z,5.83
2019-04-20T15:37:32.980Z,4.67
2019-04-20T15:40:06.465Z,6.47
2019-04-20T15:42:51.495Z,5.67
2019-04-20T15:45:15.681Z,6.15
2019-04-20T15:47:50.101Z,6.15
2019-04-20T15:50:23.968Z,5.83
2019-04-20T15:52:58.759Z,7.05
2019-04-20T15:55:37.395Z,7.33
2019-04-20T15:58:06.733Z,5.67
2019-04-20T16:00:40.592Z,7.83
2019-04-20T16:03:19.144Z,7.65
2019-04-20T16:05:53.726Z,7.55
2019-04-20T16:08:26.406Z,6.37
2019-04-20T16:10:59.435Z,10.78
2019-04-20T16:13:38.082Z,6.35
2019-04-20T16:16:07.911Z,7.47
2019-04-20T16:18:43.078Z,7.47
2019-04-20T16:21:21.894Z,8.10
2019-04-20T16:23:55.168Z,6.65
2019-04-20T16:26:35.567Z,8.30
2019-04-20T16:29:08.845Z,8.38
2019-04-20T16:31:44.088Z,7.90
2019-04-20T16:34:16.733Z,7.37
2019-04-20T16:36:52.993Z,8.23
2019-04-20T16:39:25.408Z,9.03
2019-04-20T16:41:58.373Z,8.05
2019-04-20T16:44:31.447Z,10.45
2019-04-20T16:47:05.908Z,7.37
2019-04-20T16:49:41.202Z,8.15
2019-04-20T16:52:14.900Z,6.92
2019-04-20T16:54:48.029Z,8.65
2019-04-20T16:57:21.497Z,6.95
2019-04-20T16:59:57.778Z,9.05
2019-04-20T17:02:29.943Z,7.72
2019-04-20T17:05:03.201Z,9.73
2019-04-20T17:07:44.873Z,8.43
2019-04-20T17:10:18.326Z,9.63
2019-04-20T17:12:51.464Z,11.33
2019-04-20T17:15:25.533Z,8.68
2019-04-20T17:17:59.019Z,7.97
2019-04-20T17:20:32.711Z,7.87
2019-04-20T17:23:08.699Z,9.60
2019-04-20T17:25:41.901Z,9.70
2019-04-20T17:28:33.146Z,8.28
2019-04-20T17:31:09.133Z,8.25
2019-04-20T17:33:55.335Z,8.73
2019-04-20T17:36:25.264Z,8.10
2019-04-20T17:38:57.717Z,8.70
2019-04-20T17:41:52.951Z,9.33
2019-04-20T17:44:19.861Z,8.68
2019-04-20T17:46:47.656Z,8.45
2019-04-20T17:49:26.946Z,9.88
2019-04-20T17:52:12.201Z,11.28
2019-04-20T17:54:23.272Z,10.50
2019-04-20T17:56:56.266Z,9.83
2019-04-20T17:59:30.397Z,11.60
2019-04-20T18:02:19.060Z,11.43
2019-04-20T18:05:14.220Z,14.18
2019-04-20T18:07:48.154Z,12.65
2019-04-20T18:10:19.986Z,11.97
2019-04-20T18:12:42.277Z,14.58
2019-04-20T18:15:29.444Z,17.65
2019-04-20T18:18:13.459Z,16.50
2019-04-20T18:20:44.944Z,18.37
2019-04-20T18:23:25.530Z,14.58
2019-04-20T18:26:15.900Z,14.90
2019-04-20T18:28:54.424Z,18.73
2019-04-20T18:31:11.202Z,16.00
2019-04-20T18:33:44.847Z,18.62
2019-04-20T18:36:23.686Z,18.55
2019-04-20T18:38:58.620Z,19.12
2019-04-20T18:41:38.409Z,18.65
2019-04-20T18:44:04.489Z,17.70
2019-04-20T18:47:00.698Z,20.05
2019-04-20T18:49:28.218Z,16.95
2019-04-20T18:51:48.112Z,21.15
2019-04-20T18:54:25.763Z,30.35
2019-04-20T18:56:58.413Z,32.00
2019-04-20T18:59:40.076Z,34.78
2019-04-20T19:02:13.805Z,35.08
2019-04-20T19:04:43.858Z,29.40
2019-04-20T19:07:17.538Z,20.15
2019-04-20T19:09:55.210Z,27.65
2019-04-20T19:12:34.486Z,23.20
2019-04-20T19:15:28.186Z,23.07
2019-04-20T19:17:59.004Z,18.40
2019-04-20T19:20:28.738Z,17.92
2019-04-20T19:23:00.385Z,16.73
2019-04-20T19:25:37.447Z,15.93
2019-04-20T19:28:08.832Z,19.92
2019-04-20T19:30:49.958Z,18.07
2019-04-20T19:33:30.984Z,20.45
2019-04-20T19:36:09.299Z,21.17
2019-04-20T19:38:41.825Z,22.40
2019-04-20T19:41:21.405Z,24.55
2019-04-20T19:43:49.969Z,24.95
2019-04-20T19:48:55.916Z,22.52
2019-04-20T19:51:43.074Z,20.75
2019-04-20T19:54:17.932Z,22.13
2019-04-20T19:56:46.707Z,23.27
2019-04-20T19:59:17.461Z,20.20
2019-04-20T20:01:40.185Z,17.15
2019-04-20T20:04:13.723Z,18.62
2019-04-20T20:06:51.887Z,19.27
2019-04-20T20:09:21.937Z,17.15
2019-04-20T20:11:57.256Z,16.10
2019-04-20T20:14:36.500Z,16.02
2019-04-20T20:17:26.921Z,15.08
2019-04-20T20:20:06.974Z,15.43
2019-04-20T20:22:26.732Z,17.90
2019-04-20T20:24:49.362Z,15.60
2019-04-20T20:27:31.407Z,15.32
2019-04-20T20:30:07.017Z,16.97
2019-04-20T20:32:49.282Z,14.87
2019-04-20T20:35:15.395Z,13.88
2019-04-20T20:37:47.976Z,17.57
2019-04-20T20:40:23.306Z,17.30
2019-04-20T20:43:06.147Z,15.28
2019-04-20T20:45:36.127Z,16.07
2019-04-20T20:48:15.856Z,17.25
2019-04-20T20:50:53.275Z,17.45
2019-04-20T20:53:16.329Z,15.83
2019-04-20T20:55:47.971Z,15.00
2019-04-20T20:58:32.545Z,15.90
2019-04-20T21:00:57.571Z,15.50
2019-04-20T21:03:34.630Z,13.80
2019-04-20T21:06:03.317Z,15.25
2019-04-20T21:08:42.845Z,12.53
2019-04-20T21:11:19.792Z,14.73
2019-04-20T21:13:48.743Z,14.98
2019-04-20T21:16:27.652Z,13.38
2019-04-20T21:19:15.858Z,13.80
2019-04-20T21:21:42.531Z,14.00
2019-04-20T21:24:14.532Z,15.35
2019-04-20T21:26:45.926Z,15.18
2019-04-20T21:29:20.488Z,14.85
2019-04-20T21:32:01.831Z,12.98
2019-04-20T21:34:29.121Z,14.00
2019-04-20T21:37:11.621Z,14.20
2019-04-20T21:39:44.056Z,13.43
2019-04-20T21:42:16.110Z,14.40
2019-04-20T21:44:50.074Z,14.10
2019-04-20T21:47:27.309Z,13.38
2019-04-20T21:50:15.364Z,13.30
2019-04-20T21:52:38.757Z,13.25
2019-04-20T21:55:05.873Z,14.60
2019-04-20T21:57:44.708Z,14.47
2019-04-20T22:00:25.174Z,13.75
2019-04-20T22:02:56.257Z,12.05
2019-04-20T22:05:25.289Z,10.60
2019-04-20T22:08:03.324Z,12.20
2019-04-20T22:10:34.339Z,11.40
2019-04-20T22:13:09.936Z,10.80
2019-04-20T22:15:51.830Z,12.33
2019-04-20T22:18:21.512Z,12.80
2019-04-20T22:21:04.634Z,12.18
2019-04-20T22:23:43.279Z,11.48
2019-04-20T22:26:14.230Z,10.75
2019-04-20T22:28:38.157Z,9.80
2019-04-20T22:31:12.030Z,9.95
2019-04-20T22:33:47.297Z,11.50
2019-04-20T22:36:24.045Z,10.88
2019-04-20T22:39:09.673Z,8.98
2019-04-20T22:41:52.427Z,9.00
2019-04-20T22:44:22.442Z,14.60
2019-04-20T22:46:54.337Z,13.60
2019-04-20T22:49:44.089Z,11.80
2019-04-20T22:52:18.114Z,10.85
2019-04-20T22:54:54.310Z,15.03
2019-04-20T22:57:30.265Z,11.88
2019-04-20T22:59:58.322Z,12.30
2019-04-20T23:02:24.507Z,11.57
2019-04-20T23:04:57.169Z,10.43
2019-04-20T23:07:30.728Z,11.25
2019-04-20T23:10:05.422Z,12.13
2019-04-20T23:12:40.050Z,10.93
2019-04-20T23:15:14.414Z,9.33
2019-04-20T23:17:50.438Z,10.15
2019-04-20T23:20:27.663Z,9.40
2019-04-20T23:22:56.921Z,11.95
2019-04-20T23:25:31.274Z,8.68
2019-04-20T23:28:10.119Z,8.45
2019-04-20T23:30:41.985Z,7.67
2019-04-20T23:33:14.018Z,8.68
2019-04-20T23:35:54.168Z,7.83
2019-04-20T23:38:24.579Z,7.83
2019-04-20T23:40:55.974Z,10.45
2019-04-20T23:43:35.866Z,8.85
2019-04-20T23:46:19.605Z,8.78
2019-04-20T23:49:13.538Z,10.85
2019-04-20T23:52:05.699Z,9.48
2019-04-20T23:54:22.119Z,9.60
2019-04-20T23:56:50.083Z,8.70
2019-04-20T23:59:30.408Z,8.08
